createdAt,value
2023-04-22T00:03:50.351Z,2.30
2023-04-22T00:08:54.562Z,2.20
2023-04-22T00:13:58.668Z,2.15
2023-04-22T00:19:02.201Z,2.30
2023-04-22T00:24:05.445Z,2.30
2023-04-22T00:29:09.091Z,1.83
2023-04-22T00:34:13.206Z,1.80
2023-04-22T00:39:16.954Z,2.15
2023-04-22T00:44:22.001Z,1.85
2023-04-22T00:49:28.356Z,2.10
2023-04-22T00:54:32.928Z,2.88
2023-04-22T00:59:37.421Z,2.10
2023-04-22T01:04:42.729Z,2.05
2023-04-22T01:09:46.743Z,2.30
2023-04-22T01:14:50.562Z,2.40
2023-04-22T01:19:55.975Z,2.30
2023-04-22T01:24:59.510Z,2.13
2023-04-22T01:30:03.410Z,2.42
2023-04-22T01:35:09.207Z,2.47
2023-04-22T01:40:14.847Z,1.90
2023-04-22T01:45:19.410Z,2.15
2023-04-22T01:50:23.771Z,2.13
2023-04-22T01:55:27.332Z,2.72
2023-04-22T02:00:31.044Z,2.88
2023-04-22T02:05:34.668Z,2.13
2023-04-22T02:10:38.065Z,2.92
2023-04-22T02:15:41.767Z,3.22
2023-04-22T02:20:45.203Z,2.63
2023-04-22T02:25:53.508Z,2.97
2023-04-22T02:30:57.414Z,2.90
2023-04-22T02:36:01.117Z,3.65
2023-04-22T02:41:04.502Z,2.60
2023-04-22T02:46:08.065Z,2.58
2023-04-22T02:51:12.177Z,3.28
2023-04-22T02:56:16.047Z,2.97
2023-04-22T03:01:19.909Z,2.90
2023-04-22T03:06:23.737Z,3.20
2023-04-22T03:11:27.724Z,3.03
2023-04-22T03:16:31.957Z,2.78
2023-04-22T03:21:40.100Z,3.67
2023-04-22T03:26:43.914Z,3.05
2023-04-22T03:31:47.727Z,3.20
2023-04-22T03:36:51.590Z,3.03
2023-04-22T03:41:56.338Z,3.10
2023-04-22T03:47:00.174Z,2.92
2023-04-22T03:52:10.858Z,3.50
2023-04-22T03:57:19.263Z,2.97
2023-04-22T04:02:23.942Z,3.60
2023-04-22T04:07:27.312Z,3.35
2023-04-22T04:12:31.337Z,3.22
2023-04-22T04:17:35.754Z,3.20
2023-04-22T04:22:41.659Z,3.83
2023-04-22T04:27:46.870Z,3.08
2023-04-22T04:32:51.688Z,3.67
2023-04-22T04:37:55.685Z,3.30
2023-04-22T04:43:02.709Z,3.20
2023-04-22T04:48:13.208Z,3.55
2023-04-22T04:53:20.797Z,3.55
2023-04-22T04:58:25.067Z,3.05
2023-04-22T05:03:43.093Z,2.33
2023-04-22T05:08:49.366Z,2.75
2023-04-22T05:13:53.123Z,3.40
2023-04-22T05:21:47.457Z,2.65
2023-04-22T05:26:55.802Z,2.80
2023-04-22T05:35:41.083Z,2.50
2023-04-22T05:40:46.050Z,2.83
2023-04-22T05:45:51.776Z,2.08
2023-04-22T05:50:57.474Z,2.47
2023-04-22T05:56:03.713Z,2.50
2023-04-22T06:01:17.943Z,2.15
2023-04-22T06:06:38.371Z,3.45
2023-04-22T06:11:42.136Z,3.20
2023-04-22T06:16:45.851Z,3.30
2023-04-22T06:21:56.786Z,2.05
2023-04-22T06:27:02.465Z,2.08
2023-04-22T06:32:06.873Z,1.90
2023-04-22T06:37:10.880Z,1.70
2023-04-22T06:42:15.718Z,2.40
2023-04-22T06:47:45.807Z,2.20
2023-04-22T06:52:52.045Z,2.35
2023-04-22T06:57:55.729Z,2.17
2023-04-22T07:02:59.848Z,2.22
2023-04-22T07:08:03.141Z,2.92
2023-04-22T07:13:07.126Z,3.40
2023-04-22T07:18:11.228Z,2.80
2023-04-22T07:23:14.986Z,2.70
2023-04-22T07:28:19.118Z,3.25
2023-04-22T07:33:22.865Z,2.55
2023-04-22T07:38:27.206Z,2.70
2023-04-22T07:43:30.886Z,2.47
2023-04-22T07:48:34.000Z,2.47
2023-04-22T07:53:37.540Z,1.90
2023-04-22T07:58:41.032Z,2.03
2023-04-22T08:03:44.976Z,2.45
2023-04-22T08:08:48.729Z,1.80
2023-04-22T08:13:52.538Z,2.00
2023-04-22T08:18:57.772Z,2.10
2023-04-22T08:24:01.359Z,2.15
2023-04-22T08:29:26.694Z,2.05
2023-04-22T08:34:29.806Z,2.22
2023-04-22T08:39:33.012Z,2.30
2023-04-22T08:44:38.244Z,2.22
2023-04-22T08:49:43.998Z,2.37
2023-04-22T08:54:47.199Z,2.90
2023-04-22T08:59:52.025Z,2.28
2023-04-22T09:04:55.814Z,2.15
2023-04-22T09:09:59.505Z,2.13
2023-04-22T09:15:03.827Z,2.20
2023-04-22T09:20:10.027Z,2.38
2023-04-22T09:25:36.349Z,2.17
2023-04-22T09:30:39.583Z,2.08
2023-04-22T09:35:45.175Z,2.25
2023-04-22T09:45:53.777Z,2.10
2023-04-22T09:50:58.160Z,2.00
2023-04-22T09:56:05.354Z,2.03
2023-04-22T10:01:09.098Z,2.08
2023-04-22T10:06:12.792Z,1.67
2023-04-22T10:11:16.966Z,1.70
2023-04-22T10:16:26.052Z,1.92
2023-04-22T10:21:32.614Z,1.92
2023-04-22T10:26:56.960Z,1.60
2023-04-22T10:32:25.813Z,1.67
2023-04-22T10:37:28.870Z,1.60
2023-04-22T10:42:32.489Z,2.00
2023-04-22T10:47:37.786Z,1.40
2023-04-22T10:52:45.469Z,1.65
2023-04-22T10:57:51.401Z,1.92
2023-04-22T11:03:18.635Z,1.58
2023-04-22T11:08:24.110Z,1.75
2023-04-22T11:13:30.240Z,1.75
2023-04-22T11:18:33.824Z,1.50
2023-04-22T11:23:37.928Z,1.50
2023-04-22T11:28:48.793Z,1.80
2023-04-22T11:33:52.475Z,1.55
2023-04-22T11:38:57.556Z,1.30
2023-04-22T11:44:02.038Z,1.30
2023-04-22T11:49:34.858Z,1.20
2023-04-22T11:54:39.109Z,1.40
2023-04-22T11:59:43.430Z,1.60
2023-04-22T12:04:47.726Z,1.50
2023-04-22T12:09:55.177Z,1.50
2023-04-22T12:14:58.421Z,1.10
2023-04-22T12:20:01.610Z,1.42
2023-04-22T12:25:05.266Z,1.48
2023-04-22T12:30:09.247Z,1.60
2023-04-22T12:35:12.986Z,1.63
2023-04-22T12:40:17.057Z,1.40
2023-04-22T12:45:20.974Z,1.42
2023-04-22T12:50:24.253Z,1.40
2023-04-22T12:55:28.557Z,1.13
2023-04-22T13:00:32.107Z,1.48
2023-04-22T13:05:35.918Z,1.20
2023-04-22T13:10:39.014Z,1.40
2023-04-22T13:15:42.512Z,1.33
2023-04-22T13:20:46.599Z,1.35
2023-04-22T13:25:51.126Z,1.77
2023-04-22T13:30:55.615Z,1.30
2023-04-22T13:35:59.040Z,1.38
2023-04-22T13:41:03.448Z,1.73
2023-04-22T13:46:07.192Z,1.30
2023-04-22T13:51:11.090Z,1.40
2023-04-22T13:56:16.033Z,1.42
2023-04-22T14:01:21.459Z,1.33
2023-04-22T14:06:27.560Z,1.38
2023-04-22T14:11:31.536Z,1.13
2023-04-22T14:16:35.404Z,0.93
2023-04-22T14:21:38.711Z,1.35
2023-04-22T14:26:42.752Z,1.48
2023-04-22T14:31:46.931Z,1.35
2023-04-22T14:36:50.810Z,1.27
2023-04-22T14:41:54.833Z,1.13
2023-04-22T14:46:58.024Z,1.38
2023-04-22T14:52:01.801Z,1.20
2023-04-22T14:57:06.013Z,1.10
2023-04-22T15:02:16.119Z,1.25
2023-04-22T15:07:20.049Z,1.00
2023-04-22T15:12:23.816Z,1.00
2023-04-22T15:17:27.720Z,1.10
2023-04-22T15:22:33.000Z,1.35
2023-04-22T15:27:36.613Z,1.40
2023-04-22T15:32:39.692Z,0.93
2023-04-22T15:37:43.651Z,1.38
2023-04-22T15:42:47.596Z,1.00
2023-04-22T15:47:52.641Z,1.52
2023-04-22T15:52:56.409Z,1.07
2023-04-22T15:57:59.961Z,1.10
2023-04-22T16:03:03.742Z,1.40
2023-04-22T16:08:07.358Z,1.33
2023-04-22T16:13:10.973Z,1.50
2023-04-22T16:18:15.078Z,1.40
2023-04-22T16:23:18.742Z,1.20
2023-04-22T16:28:22.882Z,1.30
2023-04-22T16:33:26.326Z,1.30
2023-04-22T16:38:29.500Z,1.10
2023-04-22T16:43:33.318Z,1.60
2023-04-22T16:48:37.415Z,1.42
2023-04-22T16:53:41.442Z,2.15
2023-04-22T16:58:45.373Z,1.60
2023-04-22T17:03:49.028Z,1.90
2023-04-22T17:08:52.795Z,2.40
2023-04-22T17:13:56.276Z,2.30
2023-04-22T17:19:00.039Z,2.33
2023-04-22T17:24:06.151Z,2.58
2023-04-22T17:29:09.676Z,2.40
2023-04-22T17:34:13.936Z,2.60
2023-04-22T17:39:17.344Z,2.92
2023-04-22T17:44:20.688Z,4.43
2023-04-22T17:49:24.313Z,3.53
2023-04-22T17:54:27.819Z,3.33
2023-04-22T17:59:31.946Z,3.33
2023-04-22T18:04:36.042Z,3.30
2023-04-22T18:09:39.918Z,3.72
2023-04-22T18:14:43.966Z,4.38
2023-04-22T18:19:51.322Z,13.02
2023-04-22T18:24:54.640Z,11.48
2023-04-22T18:29:58.051Z,5.50
2023-04-22T18:35:01.645Z,4.15
2023-04-22T18:40:06.688Z,3.92
2023-04-22T18:45:10.567Z,2.80
2023-04-22T18:50:14.696Z,3.28
2023-04-22T18:55:18.681Z,3.35
2023-04-22T19:00:22.315Z,2.85
2023-04-22T19:05:26.556Z,2.40
2023-04-22T19:10:30.171Z,3.65
2023-04-22T19:15:33.635Z,3.10
2023-04-22T19:20:37.214Z,2.85
2023-04-22T19:25:40.738Z,2.85
2023-04-22T19:30:44.543Z,3.10
2023-04-22T19:35:47.967Z,3.30
2023-04-22T19:40:51.602Z,2.80
2023-04-22T19:45:55.254Z,2.92
2023-04-22T19:51:00.047Z,2.78
2023-04-22T19:56:04.188Z,3.33
2023-04-22T20:01:07.931Z,3.88
2023-04-22T20:06:15.320Z,3.85
2023-04-22T20:11:19.310Z,4.75
2023-04-22T20:16:24.212Z,3.60
2023-04-22T20:21:29.572Z,3.60
2023-04-22T20:26:33.644Z,3.92
2023-04-22T20:31:37.453Z,4.30
2023-04-22T20:36:41.116Z,4.53
2023-04-22T20:41:46.056Z,4.00
2023-04-22T20:46:49.061Z,3.60
2023-04-22T20:51:53.382Z,4.28
2023-04-22T20:56:58.012Z,4.32
2023-04-22T21:02:04.493Z,3.63
2023-04-22T21:07:12.508Z,4.17
2023-04-22T21:12:17.702Z,4.05
2023-04-22T21:17:25.720Z,3.60
2023-04-22T21:22:30.036Z,3.85
2023-04-22T21:27:35.547Z,3.92
2023-04-22T21:32:40.943Z,3.92
2023-04-22T21:37:44.116Z,4.00
2023-04-22T21:42:48.889Z,3.63
2023-04-22T21:47:53.081Z,4.47
2023-04-22T21:52:57.948Z,3.67
2023-04-22T21:58:00.982Z,3.53
2023-04-22T22:03:04.709Z,4.28
2023-04-22T22:08:08.661Z,4.32
2023-04-22T22:13:12.179Z,4.35
2023-04-22T22:18:15.922Z,3.78
2023-04-22T22:23:21.674Z,4.32
2023-04-22T22:28:25.918Z,4.18
2023-04-22T22:33:30.063Z,4.72
2023-04-22T22:38:33.246Z,4.43
2023-04-22T22:43:37.400Z,4.47
2023-04-22T22:48:40.596Z,4.20
2023-04-22T22:53:44.384Z,4.30
2023-04-22T22:58:48.664Z,4.47
2023-04-22T23:03:52.770Z,4.45
2023-04-22T23:08:57.378Z,4.38
2023-04-22T23:14:02.878Z,3.92
2023-04-22T23:19:07.076Z,4.88
2023-04-22T23:24:12.802Z,4.20
2023-04-22T23:29:17.342Z,3.58
2023-04-22T23:34:24.382Z,3.58
2023-04-22T23:39:28.048Z,3.67
2023-04-22T23:44:31.781Z,3.85
2023-04-22T23:49:35.422Z,3.88
2023-04-22T23:54:40.398Z,4.10
2023-04-22T23:59:45.087Z,3.30
